Time;durP1;ratioP1;P1;durP2;ratioP2;P2;SDS_P1;SDS_P2;PMS_P1;PMS_P2;Temp;Humidity;BMP_temperature;BMP_pressure;BME280_temperature;BME280_humidity;BME280_pressure;Samples;Min_cycle;Max_cycle;Signal;HPM_P1;HPM_P2
2021/12/18 00:01:28;;;;;;;20.92;7.90;;;;;;;2.91;76.82;100171.69;1752736;81;25772;-65
2021/12/18 00:03:57;;;;;;;25.23;9.50;;;;;;;2.87;77.05;100168.59;1752628;81;25785;-63
2021/12/18 00:06:27;;;;;;;30.88;11.60;;;;;;;2.84;77.40;100171.75;1752947;81;27375;-63
2021/12/18 00:08:52;;;;;;;24.60;9.70;;;;;;;2.81;77.59;100177.09;1752514;81;25888;-63
2021/12/18 00:11:18;;;;;;;23.20;10.32;;;;;;;2.83;77.40;100171.45;1752682;80;25690;-64
2021/12/18 00:13:45;;;;;;;23.35;9.18;;;;;;;2.82;77.59;100169.27;1752745;80;25825;-64
2021/12/18 00:16:11;;;;;;;19.87;8.43;;;;;;;2.80;77.58;100167.84;1753355;81;25674;-63
2021/12/18 00:18:38;;;;;;;18.15;8.10;;;;;;;2.75;77.72;100172.06;1752794;80;27467;-64
2021/12/18 00:21:07;;;;;;;16.73;8.23;;;;;;;2.75;77.94;100171.22;1752609;80;25456;-62
2021/12/18 00:23:34;;;;;;;20.43;8.18;;;;;;;2.76;77.61;100181.83;1752899;80;25433;-63
2021/12/18 00:26:00;;;;;;;14.25;6.67;;;;;;;2.78;77.69;100181.61;1752708;81;25760;-62
2021/12/18 00:28:26;;;;;;;18.23;8.30;;;;;;;2.75;77.78;100184.76;1752966;80;25598;-64
2021/12/18 00:30:53;;;;;;;21.30;8.95;;;;;;;2.75;77.82;100187.47;1752651;81;27473;-63
2021/12/18 00:33:19;;;;;;;16.17;7.95;;;;;;;2.74;77.94;100188.53;1752618;81;25699;-66
2021/12/18 00:35:45;;;;;;;23.65;9.00;;;;;;;2.73;77.97;100185.50;1752600;81;25634;-63
2021/12/18 00:38:12;;;;;;;17.85;9.33;;;;;;;2.72;78.12;100183.85;1752191;81;26645;-64
2021/12/18 00:41:10;;;;;;;23.38;7.28;;;;;;;2.72;78.12;100180.63;1753144;80;25634;-62
2021/12/18 00:43:32;;;;;;;13.13;6.25;;;;;;;2.73;78.07;100186.33;1749530;81;25911;-68
2021/12/18 00:45:56;;;;;;;9.88;4.62;;;;;;;2.74;78.02;100180.41;1752174;81;25501;-63
2021/12/18 00:48:23;;;;;;;12.65;5.15;;;;;;;2.73;77.81;100184.14;1752842;80;25424;-63
2021/12/18 00:50:50;;;;;;;11.85;5.70;;;;;;;2.71;77.82;100184.91;1752903;81;25701;-62
2021/12/18 00:53:17;;;;;;;10.10;4.40;;;;;;;2.72;77.79;100193.33;1752762;81;25582;-63
2021/12/18 00:55:45;;;;;;;10.08;5.30;;;;;;;2.68;77.77;100194.28;1752753;80;27437;-66
2021/12/18 00:58:12;;;;;;;14.28;4.87;;;;;;;2.65;77.90;100191.22;1752362;81;25600;-68
2021/12/18 01:00:42;;;;;;;12.43;6.35;;;;;;;2.58;78.12;100201.58;1755105;80;25623;-64
2021/12/18 01:03:16;;;;;;;20.48;8.58;;;;;;;2.51;78.27;100196.75;1755151;81;25800;-64
2021/12/18 01:05:39;;;;;;;20.92;9.05;;;;;;;2.46;78.33;100197.42;1754700;81;32414;-64
2021/12/18 01:08:06;;;;;;;25.32;8.63;;;;;;;2.41;78.41;100196.41;1755203;81;27744;-62
2021/12/18 01:13:22;;;;;;;31.12;11.80;;;;;;;2.41;78.38;100209.94;1754892;81;25641;-68
2021/12/18 01:15:50;;;;;;;23.18;9.28;;;;;;;2.41;78.35;100211.28;1754471;81;25404;-65
2021/12/18 01:23:44;;;;;;;14.98;6.08;;;;;;;2.38;78.11;100214.75;1755113;81;25412;-64
2021/12/18 01:26:11;;;;;;;13.90;5.03;;;;;;;2.32;78.29;100212.93;1755008;81;25416;-63
2021/12/18 01:28:37;;;;;;;14.50;5.65;;;;;;;2.29;78.48;100209.31;1755457;81;25840;-66
2021/12/18 01:31:04;;;;;;;10.18;5.08;;;;;;;2.25;78.50;100204.05;1755043;81;25422;-64
2021/12/18 01:33:31;;;;;;;11.53;6.25;;;;;;;2.22;78.51;100205.84;1755413;81;28194;-63
2021/12/18 01:36:00;;;;;;;14.50;7.03;;;;;;;2.19;78.46;100197.62;1754766;81;25424;-62
2021/12/18 01:38:26;;;;;;;15.05;6.22;;;;;;;2.19;78.42;100203.57;1755077;81;25755;-62
2021/12/18 01:40:52;;;;;;;12.78;4.85;;;;;;;2.18;78.32;100195.97;1754989;81;25771;-65
2021/12/18 01:51:19;;;;;;;11.50;3.95;;;;;;;2.19;78.27;100204.92;1755145;81;25519;-63
2021/12/18 01:53:47;;;;;;;11.40;3.98;;;;;;;2.16;78.36;100216.98;1754459;81;25644;-62
2021/12/18 01:56:14;;;;;;;9.00;4.42;;;;;;;2.15;78.39;100216.69;1754748;81;25660;-67
2021/12/18 01:58:43;;;;;;;16.77;5.30;;;;;;;2.12;78.41;100216.61;1754023;81;27342;-65
2021/12/18 02:01:09;;;;;;;10.40;4.20;;;;;;;2.10;78.47;100217.34;1779215;80;25945;-62
2021/12/18 02:03:35;;;;;;;9.35;4.62;;;;;;;2.09;78.60;100215.70;1791370;79;25687;-62
2021/12/18 02:06:02;;;;;;;12.78;5.20;;;;;;;2.11;78.52;100218.19;1794183;79;26110;-67
2021/12/18 02:08:32;;;;;;;13.18;7.15;;;;;;;2.10;78.53;100215.99;1791799;79;25660;-67
2021/12/18 02:11:09;;;;;;;16.07;7.92;;;;;;;2.14;78.49;100224.52;1790017;79;25926;-65
2021/12/18 02:19:47;;;;;;;10.95;5.67;;;;;;;2.18;78.38;100220.83;1798743;79;25392;-62
2021/12/18 02:21:28;;;;;;;13.83;5.67;;;;;;;2.18;78.42;100220.31;1795080;79;25636;-62
2021/12/18 02:23:54;;;;;;;10.03;5.87;;;;;;;2.17;78.37;100221.88;1798711;79;26873;-62
2021/12/18 02:26:22;;;;;;;11.83;6.15;;;;;;;2.14;78.46;100217.75;1798980;79;25599;-62
2021/12/18 02:28:51;;;;;;;15.38;7.22;;;;;;;2.14;78.43;100212.34;1798621;79;25392;-62
2021/12/18 02:31:19;;;;;;;66.53;22.13;;;;;;;2.14;78.39;100216.40;1798876;79;25744;-63
2021/12/18 02:33:46;;;;;;;18.98;9.15;;;;;;;2.16;78.45;100217.53;1799008;79;25731;-62
2021/12/18 02:36:23;;;;;;;31.73;15.18;;;;;;;2.16;78.35;100216.98;1799076;79;27445;-63
2021/12/18 02:41:33;;;;;;;39.88;15.95;;;;;;;2.25;78.22;100225.14;1799098;79;25687;-64
2021/12/18 02:44:00;;;;;;;82.85;31.48;;;;;;;2.27;78.15;100225.47;1798288;79;25624;-62
2021/12/18 02:46:27;;;;;;;16.27;8.50;;;;;;;2.26;78.34;100217.86;1797844;79;25652;-68
2021/12/18 02:48:56;;;;;;;13.95;6.85;;;;;;;2.21;78.10;100213.11;1798741;79;27449;-65
2021/12/18 02:51:24;;;;;;;30.02;12.13;;;;;;;2.20;78.13;100211.98;1798219;79;26197;-63
2021/12/18 02:53:54;;;;;;;42.85;15.55;;;;;;;2.19;78.23;100221.96;1798798;79;25640;-63
2021/12/18 02:56:23;;;;;;;373.35;100.27;;;;;;;2.18;78.13;100220.83;1799339;79;26340;-66
2021/12/18 02:58:54;;;;;;;141.43;37.88;;;;;;;2.19;78.18;100220.61;1798951;79;25557;-67
2021/12/18 03:01:24;;;;;;;64.45;20.88;;;;;;;2.22;78.21;100220.17;1801380;79;33518;-67
2021/12/18 03:03:53;;;;;;;19.40;7.27;;;;;;;2.24;78.04;100211.84;1801552;79;25534;-68
2021/12/18 03:06:34;;;;;;;31.80;15.23;;;;;;;2.23;77.84;100221.84;1801336;79;25436;-67
2021/12/18 03:25:17;;;;;;;21.57;13.58;;;;;;;2.09;78.29;100234.63;1728236;83;25749;-62
2021/12/18 03:27:40;;;;;;;20.72;11.10;;;;;;;2.11;78.08;100238.47;1727122;83;25984;-62
2021/12/18 03:30:08;;;;;;;13.50;5.92;;;;;;;2.10;78.12;100228.70;1728342;83;25864;-62
2021/12/18 03:32:34;;;;;;;17.20;9.88;;;;;;;2.14;77.95;100231.27;1728623;83;25473;-63
2021/12/18 03:35:00;;;;;;;41.50;24.05;;;;;;;2.21;78.04;100237.97;1728240;83;25754;-62
2021/12/18 03:37:27;;;;;;;41.60;24.82;;;;;;;2.23;77.93;100233.18;1730778;82;25479;-67
2021/12/18 03:39:53;;;;;;;28.87;16.52;;;;;;;2.23;77.99;100232.67;1730194;82;29534;-64
2021/12/18 03:42:20;;;;;;;15.23;8.23;;;;;;;2.25;77.79;100234.61;1731048;81;25756;-63
2021/12/18 03:44:46;;;;;;;11.78;5.70;;;;;;;2.24;77.68;100232.96;1730849;82;25708;-62
2021/12/18 03:47:12;;;;;;;39.08;23.87;;;;;;;2.20;77.71;100230.91;1734206;79;25623;-67
2021/12/18 03:49:39;;;;;;;24.77;14.20;;;;;;;2.19;77.97;100231.97;1801641;79;25731;-66
2021/12/18 03:52:06;;;;;;;16.65;9.00;;;;;;;2.19;77.92;100227.91;1801472;79;27476;-67
2021/12/18 03:54:33;;;;;;;22.50;12.60;;;;;;;2.17;77.77;100234.89;1801735;79;25646;-67
2021/12/18 03:56:59;;;;;;;22.87;13.88;;;;;;;2.12;77.76;100228.78;1801490;79;25630;-67
2021/12/18 03:59:26;;;;;;;13.28;7.22;;;;;;;2.14;77.89;100233.98;1801754;79;25762;-67
2021/12/18 04:01:52;;;;;;;28.10;14.87;;;;;;;2.19;77.83;100232.78;1816262;79;25642;-67
2021/12/18 04:04:18;;;;;;;76.17;41.42;;;;;;;2.22;77.80;100232.89;1815691;79;27471;-67
2021/12/18 04:06:44;;;;;;;39.50;23.30;;;;;;;2.23;77.56;100227.26;1816028;79;25644;-65
2021/12/18 04:09:12;;;;;;;17.77;9.50;;;;;;;2.22;77.54;100226.13;1815675;79;25662;-65
2021/12/18 04:11:40;;;;;;;24.07;11.35;;;;;;;2.25;77.62;100227.04;1815921;79;25657;-62
2021/12/18 04:14:07;;;;;;;22.35;12.55;;;;;;;2.23;77.44;100229.12;1815627;79;25746;-68
2021/12/18 04:16:34;;;;;;;21.55;11.30;;;;;;;2.19;77.46;100220.61;1815800;79;27411;-68
2021/12/18 04:19:01;;;;;;;186.95;82.85;;;;;;;2.16;77.50;100213.47;1815596;79;25707;-67
2021/12/18 04:21:30;;;;;;;32.70;16.02;;;;;;;2.12;77.64;100224.73;1815901;78;25731;-66
2021/12/18 04:23:57;;;;;;;100.53;38.35;;;;;;;2.11;77.47;100226.30;1815578;78;25784;-67
2021/12/18 04:26:24;;;;;;;33.13;15.10;;;;;;;2.09;77.68;100229.73;1816009;78;25670;-66
2021/12/18 04:28:50;;;;;;;64.58;27.17;;;;;;;2.06;77.62;100225.60;1815619;79;27426;-66
2021/12/18 04:31:17;;;;;;;138.35;47.53;;;;;;;2.05;77.64;100222.60;1815602;79;25675;-66
2021/12/18 04:33:43;;;;;;;193.87;65.55;;;;;;;2.08;77.65;100229.44;1815662;79;25425;-66
2021/12/18 04:36:10;;;;;;;353.30;108.35;;;;;;;2.10;77.59;100232.22;1815641;79;25765;-67
2021/12/18 04:38:36;;;;;;;71.20;22.37;;;;;;;2.12;77.43;100233.36;1815706;78;25696;-66
2021/12/18 04:41:04;;;;;;;294.52;81.65;;;;;;;2.09;77.32;100229.22;1815679;78;29493;-62
2021/12/18 04:43:31;;;;;;;370.77;103.87;;;;;;;2.09;77.30;100227.88;1815618;78;25758;-61
2021/12/18 04:45:57;;;;;;;233.80;59.88;;;;;;;2.11;77.51;100219.54;1815704;79;25526;-62
2021/12/18 04:48:23;;;;;;;468.05;128.85;;;;;;;2.09;77.51;100223.81;1815998;78;26289;-63
2021/12/18 04:50:50;;;;;;;249.05;67.92;;;;;;;2.07;77.54;100226.44;1816033;79;25684;-62
2021/12/18 04:53:16;;;;;;;590.50;174.82;;;;;;;2.03;77.46;100227.39;1815014;79;27455;-62
2021/12/18 04:55:42;;;;;;;215.72;50.80;;;;;;;1.99;77.55;100229.69;1815368;79;25668;-67
2021/12/18 04:58:09;;;;;;;84.42;23.85;;;;;;;1.96;77.49;100221.20;1815569;79;25469;-67
2021/12/18 05:00:40;;;;;;;278.55;72.55;;;;;;;1.91;77.51;100215.60;1811064;79;25811;-63
2021/12/18 05:03:10;;;;;;;;;;;;;;;1.92;77.61;100209.14;1806773;79;25443;-62
2021/12/18 05:05:35;;;;;;;418.05;97.50;;;;;;;1.91;77.43;100216.45;1803878;79;25751;-62
2021/12/18 05:08:04;;;;;;;1078.40;312.40;;;;;;;1.88;77.60;100216.33;1804004;79;25997;-61
2021/12/18 05:10:31;;;;;;;737.30;234.07;;;;;;;1.95;77.75;100222.23;1804321;79;25581;-67
2021/12/18 05:12:58;;;;;;;1176.97;373.65;;;;;;;1.97;77.57;100215.58;1803857;79;25799;-68
2021/12/18 05:15:24;;;;;;;275.22;67.25;;;;;;;1.98;77.49;100212.33;1804230;79;25589;-68
2021/12/18 05:17:50;;;;;;;253.50;55.35;;;;;;;1.98;77.40;100207.76;1804312;79;27383;-67
2021/12/18 05:20:18;;;;;;;210.82;47.88;;;;;;;1.95;77.56;100212.77;1803889;79;27151;-67
2021/12/18 05:22:44;;;;;;;80.87;22.60;;;;;;;1.91;77.67;100210.20;1804364;79;25691;-64
2021/12/18 05:25:10;;;;;;;152.97;35.00;;;;;;;1.89;77.51;100199.60;1803805;79;25784;-63
2021/12/18 05:27:36;;;;;;;53.58;15.95;;;;;;;1.86;77.67;100205.44;1803986;79;25387;-64
2021/12/18 05:30:07;;;;;;;411.40;96.40;;;;;;;1.83;77.67;100212.63;1803952;79;27484;-63
2021/12/18 05:32:33;;;;;;;244.37;52.50;;;;;;;1.82;77.71;100220.45;1804337;79;25385;-64
2021/12/18 05:35:00;;;;;;;54.35;15.93;;;;;;;1.82;77.68;100224.50;1803926;79;25669;-63
2021/12/18 05:37:45;;;;;;;171.53;40.08;;;;;;;1.84;77.55;100223.23;1804045;79;25828;-68
2021/12/18 05:40:00;;;;;;;247.40;54.93;;;;;;;1.88;77.59;100226.34;1801478;79;25492;-67
2021/12/18 05:42:26;;;;;;;82.25;25.55;;;;;;;1.90;77.51;100222.88;1803969;79;28359;-66
2021/12/18 05:44:53;;;;;;;244.25;56.75;;;;;;;1.92;77.45;100228.91;1804275;79;25485;-68
2021/12/18 05:47:19;;;;;;;145.17;34.53;;;;;;;1.94;77.59;100220.58;1803956;79;25643;-66
2021/12/18 05:49:45;;;;;;;55.20;15.55;;;;;;;1.92;77.37;100222.14;1804261;79;26075;-67
2021/12/18 05:52:12;;;;;;;744.88;191.37;;;;;;;1.90;77.42;100224.23;1804360;79;25544;-68
2021/12/18 05:54:39;;;;;;;269.70;57.70;;;;;;;1.87;77.56;100222.80;1804437;79;26622;-66
2021/12/18 05:57:07;;;;;;;30.25;10.75;;;;;;;1.88;77.52;100225.80;1804111;79;25586;-66
2021/12/18 05:59:34;;;;;;;52.98;15.95;;;;;;;1.84;77.39;100232.69;1804329;79;25727;-66
2021/12/18 06:02:01;;;;;;;113.88;34.33;;;;;;;1.82;77.57;100230.75;1809286;79;25720;-67
2021/12/18 06:04:28;;;;;;;268.95;60.70;;;;;;;1.87;77.47;100230.06;1810215;79;25453;-66
2021/12/18 06:07:03;;;;;;;54.55;18.92;;;;;;;1.92;77.43;100231.61;1810483;79;27407;-63
2021/12/18 06:09:22;;;;;;;473.65;114.30;;;;;;;1.92;77.13;100241.08;1808265;79;25839;-65
2021/12/18 06:11:48;;;;;;;184.57;42.53;;;;;;;1.91;77.04;100242.12;1810300;79;25592;-62
2021/12/18 06:14:14;;;;;;;119.80;32.05;;;;;;;1.95;77.16;100246.56;1810141;79;25701;-62
2021/12/18 06:16:41;;;;;;;185.35;42.75;;;;;;;1.97;77.20;100237.20;1810113;79;25656;-64
2021/12/18 06:19:07;;;;;;;105.92;29.98;;;;;;;1.97;76.94;100237.72;1810169;79;29585;-62
2021/12/18 06:21:33;;;;;;;203.62;47.00;;;;;;;1.94;77.16;100240.34;1810159;79;25663;-62
2021/12/18 06:24:00;;;;;;;125.22;32.25;;;;;;;1.96;77.20;100246.34;1810111;79;25660;-62
2021/12/18 06:26:27;;;;;;;299.80;72.35;;;;;;;1.98;77.23;100242.91;1810101;79;25807;-62
2021/12/18 06:28:54;;;;;;;81.85;24.02;;;;;;;2.00;77.37;100239.98;1810523;79;25560;-62
2021/12/18 06:31:20;;;;;;;258.55;55.80;;;;;;;2.00;77.13;100242.19;1810404;79;27237;-62
2021/12/18 06:33:46;;;;;;;83.22;23.40;;;;;;;2.02;77.21;100224.90;1810085;79;25596;-67
2021/12/18 06:36:13;;;;;;;181.85;43.63;;;;;;;2.07;77.12;100223.73;1810105;79;25548;-67
2021/12/18 06:38:39;;;;;;;39.85;11.85;;;;;;;2.12;77.07;100223.37;1810258;79;26692;-67
2021/12/18 06:41:05;;;;;;;95.80;24.65;;;;;;;2.19;77.13;100228.72;1810577;79;25458;-68
2021/12/18 06:43:32;;;;;;;56.13;17.92;;;;;;;2.22;77.06;100236.41;1803628;79;27517;-68
2021/12/18 06:45:58;;;;;;;36.70;13.70;;;;;;;2.25;77.05;100247.33;1789892;79;25942;-67
2021/12/18 06:48:24;;;;;;;67.20;22.10;;;;;;;2.29;77.07;100250.41;1793237;79;25642;-65
2021/12/18 06:50:51;;;;;;;61.45;18.27;;;;;;;2.25;76.88;100251.39;1800892;79;25795;-66
2021/12/18 06:53:18;;;;;;;28.45;11.78;;;;;;;2.23;76.54;100257.53;1802090;79;25553;-62
2021/12/18 06:55:45;;;;;;;148.30;42.62;;;;;;;2.19;76.67;100257.67;1801556;79;28163;-66
2021/12/18 06:58:12;;;;;;;87.15;28.70;;;;;;;2.16;76.96;100263.52;1801748;79;25890;-63
2021/12/18 07:00:38;;;;;;;45.50;16.40;;;;;;;2.15;76.87;100258.61;1777761;79;25851;-64
2021/12/18 07:03:05;;;;;;;51.28;18.00;;;;;;;2.17;76.90;100259.75;1708656;82;25718;-67
2021/12/18 07:05:32;;;;;;;38.70;14.55;;;;;;;2.16;76.32;100262.16;1708309;83;25671;-64
2021/12/18 07:07:58;;;;;;;99.13;31.57;;;;;;;2.17;76.26;100263.81;1709353;83;27453;-66
2021/12/18 07:10:25;;;;;;;40.50;13.72;;;;;;;2.21;76.15;100265.86;1708567;83;25860;-68
2021/12/18 07:12:52;;;;;;;188.95;63.38;;;;;;;2.25;76.39;100256.25;1714795;81;25601;-68
2021/12/18 07:15:18;;;;;;;43.38;17.07;;;;;;;2.28;76.32;100255.52;1749500;81;25740;-67
2021/12/18 07:17:44;;;;;;;28.55;10.65;;;;;;;2.31;76.11;100258.63;1752999;80;25727;-67
2021/12/18 07:20:12;;;;;;;35.08;14.38;;;;;;;2.27;75.42;100253.87;1739505;81;27370;-66
2021/12/18 07:22:39;;;;;;;24.63;10.90;;;;;;;2.23;75.79;100260.23;1736255;82;25401;-65
2021/12/18 07:25:07;;;;;;;37.85;17.95;;;;;;;2.21;75.07;100259.09;1736148;82;25606;-67
2021/12/18 07:27:33;;;;;;;41.63;20.12;;;;;;;2.20;75.76;100269.62;1736245;82;25831;-67
2021/12/18 07:30:00;;;;;;;25.92;11.63;;;;;;;2.21;75.50;100262.31;1736340;82;25598;-63
2021/12/18 07:32:27;;;;;;;24.52;10.90;;;;;;;2.24;75.45;100255.12;1736040;82;27429;-62
2021/12/18 07:34:54;;;;;;;31.68;14.78;;;;;;;2.26;75.33;100258.45;1736245;82;25655;-63
2021/12/18 07:37:24;;;;;;;28.67;13.35;;;;;;;2.28;75.32;100257.71;1735676;82;25603;-62
2021/12/18 07:39:52;;;;;;;19.05;10.43;;;;;;;2.34;75.14;100258.19;1736294;82;25686;-61
2021/12/18 07:42:19;;;;;;;23.85;11.33;;;;;;;2.38;74.58;100249.09;1736452;82;25485;-64
2021/12/18 07:44:46;;;;;;;20.45;8.80;;;;;;;2.35;74.52;100244.12;1735989;82;27863;-62
2021/12/18 07:47:13;;;;;;;15.53;7.10;;;;;;;2.33;74.48;100246.23;1735243;82;25655;-61
2021/12/18 07:49:39;;;;;;;18.73;8.83;;;;;;;2.31;74.76;100236.98;1736018;82;25646;-61
2021/12/18 07:52:07;;;;;;;17.10;7.40;;;;;;;2.32;75.08;100231.03;1736655;82;26620;-61
2021/12/18 07:54:34;;;;;;;19.75;7.70;;;;;;;2.29;74.34;100230.95;1736136;82;25513;-62
2021/12/18 07:57:01;;;;;;;15.13;7.50;;;;;;;2.27;74.20;100234.94;1736138;82;27494;-66
2021/12/18 07:59:28;;;;;;;29.23;12.05;;;;;;;2.27;74.79;100234.94;1736008;82;25666;-67
2021/12/18 08:01:55;;;;;;;29.25;10.82;;;;;;;2.27;74.10;100233.58;1772567;79;25662;-66
2021/12/18 08:04:22;;;;;;;23.12;9.05;;;;;;;2.27;73.74;100235.74;1801565;79;25813;-67
2021/12/18 08:06:48;;;;;;;56.73;17.12;;;;;;;2.26;74.24;100238.16;1801439;79;25395;-67
2021/12/18 08:09:16;;;;;;;36.83;15.10;;;;;;;2.32;74.73;100244.05;1801845;79;27293;-66
2021/12/18 08:11:43;;;;;;;38.98;17.45;;;;;;;2.28;73.55;100240.13;1800604;79;25496;-62
2021/12/18 08:14:09;;;;;;;20.45;7.53;;;;;;;2.31;74.33;100244.27;1801117;79;25750;-64
2021/12/18 08:16:35;;;;;;;26.82;10.38;;;;;;;2.38;74.48;100243.69;1801949;79;26311;-63
2021/12/18 08:19:02;;;;;;;71.10;26.30;;;;;;;2.47;74.51;100246.42;1801353;79;25679;-65
2021/12/18 08:21:28;;;;;;;24.27;8.15;;;;;;;2.57;74.11;100247.30;1801315;79;27537;-63
2021/12/18 08:23:55;;;;;;;27.73;9.83;;;;;;;2.59;73.60;100250.59;1801304;79;25925;-64
2021/12/18 08:26:21;;;;;;;27.20;10.13;;;;;;;2.59;74.11;100253.30;1801555;79;25723;-66
2021/12/18 08:28:47;;;;;;;18.23;8.05;;;;;;;2.62;73.87;100254.75;1801527;79;25630;-67
2021/12/18 08:31:14;;;;;;;15.60;6.53;;;;;;;2.65;74.09;100257.02;1801263;79;25612;-67
2021/12/18 08:33:40;;;;;;;12.33;5.30;;;;;;;2.63;73.92;100257.23;1801189;79;27384;-66
2021/12/18 08:36:07;;;;;;;10.55;4.97;;;;;;;2.65;73.97;100256.18;1802332;79;25815;-66
2021/12/18 08:38:33;;;;;;;14.65;6.20;;;;;;;2.63;74.09;100260.46;1801617;79;25588;-66
2021/12/18 08:41:00;;;;;;;22.95;8.20;;;;;;;2.60;74.35;100255.48;1800971;79;27844;-66
2021/12/18 08:43:27;;;;;;;13.20;6.50;;;;;;;2.63;74.25;100250.47;1801544;79;25391;-67
2021/12/18 08:45:53;;;;;;;13.65;8.18;;;;;;;2.60;74.21;100243.31;1801784;79;27945;-67
2021/12/18 08:48:21;;;;;;;16.48;8.53;;;;;;;2.61;74.33;100245.80;1801230;79;25720;-66
2021/12/18 08:50:47;;;;;;;16.07;8.28;;;;;;;2.60;74.28;100248.20;1801563;79;25641;-66
2021/12/18 08:53:14;;;;;;;14.68;6.20;;;;;;;2.61;74.32;100244.95;1801391;79;25758;-62
2021/12/18 08:55:40;;;;;;;27.80;10.28;;;;;;;2.62;74.24;100243.92;1801212;79;25663;-63
2021/12/18 08:58:07;;;;;;;17.52;7.45;;;;;;;2.67;74.09;100237.84;1801278;79;27510;-62
2021/12/18 09:00:34;;;;;;;16.80;7.53;;;;;;;2.78;73.96;100225.44;1801642;79;25684;-62
2021/12/18 09:03:00;;;;;;;20.05;7.45;;;;;;;2.84;73.84;100225.91;1801745;79;25662;-63
2021/12/18 09:05:30;;;;;;;10.60;4.95;;;;;;;2.85;73.32;100225.67;1801561;79;25846;-62
2021/12/18 09:07:57;;;;;;;20.02;8.40;;;;;;;2.86;72.75;100221.94;1801946;79;25397;-62
2021/12/18 09:10:25;;;;;;;17.45;6.58;;;;;;;2.88;73.00;100220.36;1801300;79;27829;-62
2021/12/18 09:12:53;;;;;;;17.23;7.78;;;;;;;2.94;73.19;100213.22;1801311;79;25450;-62
2021/12/18 09:15:20;;;;;;;19.20;7.80;;;;;;;2.99;73.58;100211.48;1801288;79;25767;-62
2021/12/18 09:17:47;;;;;;;17.48;8.35;;;;;;;3.07;73.42;100216.30;1801498;79;26398;-61
2021/12/18 09:20:14;;;;;;;23.67;9.95;;;;;;;3.11;72.90;100210.75;1801819;79;25663;-66
2021/12/18 09:22:41;;;;;;;23.83;9.18;;;;;;;3.08;72.65;100212.55;1801871;79;27451;-66
2021/12/18 09:25:09;;;;;;;17.67;7.67;;;;;;;3.11;73.01;100212.91;1801283;79;25438;-68
2021/12/18 09:27:37;;;;;;;18.32;7.03;;;;;;;3.16;73.10;100219.55;1801256;79;25676;-66
2021/12/18 09:30:08;;;;;;;15.58;6.78;;;;;;;3.17;72.39;100213.08;1801762;79;25788;-67
2021/12/18 09:32:36;;;;;;;19.35;8.28;;;;;;;3.20;72.92;100216.69;1801751;79;25478;-64
2021/12/18 09:35:03;;;;;;;21.73;10.93;;;;;;;3.27;72.70;100210.66;1801834;79;27403;-61
2021/12/18 09:37:29;;;;;;;26.20;11.57;;;;;;;3.29;72.61;100213.98;1801559;79;25495;-63
2021/12/18 09:39:55;;;;;;;29.42;13.50;;;;;;;3.25;72.36;100219.53;1801228;79;25633;-63
2021/12/18 09:42:23;;;;;;;26.85;12.82;;;;;;;3.18;72.90;100214.72;1801841;79;25765;-62
2021/12/18 09:44:51;;;;;;;34.88;15.23;;;;;;;3.13;73.15;100209.98;1801415;79;25655;-62
2021/12/18 09:47:20;;;;;;;30.82;13.98;;;;;;;3.10;73.24;100208.55;1801275;79;27419;-67
2021/12/18 09:49:49;;;;;;;34.20;14.38;;;;;;;3.09;73.27;100214.20;1800911;79;25779;-62
2021/12/18 09:52:16;;;;;;;28.30;12.03;;;;;;;3.06;73.33;100208.71;1801259;79;25648;-62
2021/12/18 09:54:43;;;;;;;29.10;13.25;;;;;;;3.07;73.59;100210.36;1801753;79;25870;-66
2021/12/18 09:57:10;;;;;;;29.98;12.43;;;;;;;3.10;73.75;100215.84;1801514;79;25676;-67
2021/12/18 09:59:37;;;;;;;27.25;13.00;;;;;;;3.06;73.60;100216.84;1801266;79;27359;-66
2021/12/18 10:02:04;;;;;;;27.90;11.73;;;;;;;3.06;73.88;100211.42;1801324;79;25590;-68
2021/12/18 10:04:34;;;;;;;25.32;11.93;;;;;;;3.07;73.56;100214.94;1801751;79;25408;-67
2021/12/18 10:07:19;;;;;;;24.90;12.60;;;;;;;3.08;73.50;100209.84;1801814;79;25682;-68
2021/12/18 10:09:47;;;;;;;24.15;12.73;;;;;;;3.09;73.25;100201.49;1798823;79;25376;-66
2021/12/18 10:12:21;;;;;;;29.67;13.93;;;;;;;3.05;73.44;100197.56;1801685;79;27539;-65
2021/12/18 10:14:59;;;;;;;26.00;14.03;;;;;;;3.08;73.56;100194.40;1801490;79;25404;-66
2021/12/18 10:17:39;;;;;;;16.52;7.80;;;;;;;3.09;73.79;100189.30;1800779;79;25656;-64
2021/12/18 10:20:22;;;;;;;21.15;10.05;;;;;;;3.06;73.22;100188.40;1801635;79;25722;-62
2021/12/18 10:22:58;;;;;;;16.52;7.65;;;;;;;3.02;73.78;100184.46;1801109;79;25697;-62
2021/12/18 10:25:33;;;;;;;15.23;7.55;;;;;;;3.01;73.58;100186.88;1801410;79;27422;-62
2021/12/18 10:28:10;;;;;;;21.75;9.30;;;;;;;2.95;73.63;100179.66;1801262;79;25645;-62
2021/12/18 10:30:33;;;;;;;21.00;10.08;;;;;;;2.92;73.91;100190.94;1800061;79;25652;-62
2021/12/18 10:33:11;;;;;;;22.82;10.18;;;;;;;2.91;73.89;100187.42;1801929;79;25743;-61
2021/12/18 10:35:50;;;;;;;17.40;7.65;;;;;;;2.94;74.10;100188.30;1801529;79;25407;-61
2021/12/18 10:38:51;;;;;;;20.32;8.55;;;;;;;3.01;73.74;100182.81;1801238;79;27451;-63
2021/12/18 10:41:26;;;;;;;21.95;10.13;;;;;;;3.01;73.62;100185.53;1797567;79;25620;-68
2021/12/18 10:44:09;;;;;;;21.95;9.05;;;;;;;3.06;73.86;100175.38;1801809;79;25604;-68
2021/12/18 10:46:40;;;;;;;17.55;8.10;;;;;;;3.06;73.59;100176.73;1801651;79;25854;-68
2021/12/18 10:49:11;;;;;;;18.50;9.58;;;;;;;3.06;74.06;100175.38;1801815;79;25590;-67
2021/12/18 10:51:41;;;;;;;17.23;8.48;;;;;;;3.06;74.12;100169.95;1801827;79;27503;-67
2021/12/18 10:54:18;;;;;;;16.67;6.97;;;;;;;3.04;74.14;100162.57;1801759;79;25659;-68
2021/12/18 10:56:55;;;;;;;15.93;8.10;;;;;;;3.02;74.21;100157.38;1801539;79;25685;-67
2021/12/18 10:59:31;;;;;;;17.20;8.13;;;;;;;3.02;74.39;100135.72;1799256;79;25599;-66
2021/12/18 11:02:00;;;;;;;16.30;7.65;;;;;;;3.00;74.51;100130.52;1801120;79;25464;-62
2021/12/18 11:04:42;;;;;;;17.15;7.65;;;;;;;2.97;74.76;100127.46;1801195;79;28528;-62
2021/12/18 11:07:22;;;;;;;12.28;6.53;;;;;;;2.94;74.82;100128.72;1800072;79;25585;-63
2021/12/18 11:10:11;;;;;;;15.05;7.47;;;;;;;2.91;74.96;100127.84;1801965;79;25673;-64
2021/12/18 11:15:05;;;;;;;13.83;7.53;;;;;;;2.98;74.70;100125.05;1801471;79;25566;-62
2021/12/18 11:17:32;;;;;;;13.70;7.72;;;;;;;3.04;74.99;100124.13;1801668;79;28310;-63
2021/12/18 11:19:59;;;;;;;14.85;7.60;;;;;;;3.05;75.08;100123.07;1801626;79;25391;-63
2021/12/18 11:22:26;;;;;;;15.65;8.00;;;;;;;3.02;75.14;100115.40;1801912;79;25663;-68
2021/12/18 11:25:01;;;;;;;16.17;8.03;;;;;;;3.03;75.27;100118.43;1801426;79;25734;-68
2021/12/18 11:27:32;;;;;;;13.65;6.58;;;;;;;3.02;75.23;100108.63;1796796;79;25443;-68
2021/12/18 11:30:07;;;;;;;21.52;10.70;;;;;;;3.00;75.22;100112.92;1801442;79;25943;-67
2021/12/18 11:32:42;;;;;;;18.42;9.45;;;;;;;3.02;75.37;100112.69;1801685;79;25648;-68
2021/12/18 11:35:13;;;;;;;16.55;8.68;;;;;;;3.00;75.42;100105.34;1801895;79;25594;-66
2021/12/18 11:37:57;;;;;;;19.77;10.38;;;;;;;2.96;75.21;100098.19;1801587;79;25735;-68
2021/12/18 11:40:35;;;;;;;16.27;8.08;;;;;;;3.03;75.35;100098.11;1783339;79;25562;-68
2021/12/18 11:43:31;;;;;;;18.02;8.78;;;;;;;3.07;75.41;100088.47;1801552;79;27248;-61
2021/12/18 11:45:58;;;;;;;21.27;10.13;;;;;;;3.09;75.40;100087.73;1801511;79;25890;-60
2021/12/18 11:48:26;;;;;;;19.67;9.73;;;;;;;3.13;75.44;100083.50;1801731;79;25673;-61
2021/12/18 11:50:52;;;;;;;23.87;12.00;;;;;;;3.17;75.55;100088.45;1801320;79;25771;-60
2021/12/18 11:53:23;;;;;;;27.70;11.95;;;;;;;3.21;75.49;100087.77;1801822;79;25545;-61
2021/12/18 11:55:55;;;;;;;25.65;12.00;;;;;;;3.22;75.56;100084.52;1799970;79;28277;-60
2021/12/18 11:58:26;;;;;;;28.62;13.25;;;;;;;3.24;75.67;100078.34;1801022;79;25621;-60
2021/12/18 12:01:04;;;;;;;27.35;12.43;;;;;;;3.21;75.73;100075.58;1802073;79;25660;-60
2021/12/18 12:03:54;;;;;;;28.23;12.88;;;;;;;3.17;75.81;100072.20;1796157;79;25633;-66
2021/12/18 12:06:30;;;;;;;27.07;12.43;;;;;;;3.13;75.96;100070.47;1793666;79;25694;-66
2021/12/18 12:09:35;;;;;;;29.55;12.85;;;;;;;3.11;76.04;100075.31;1793749;79;27407;-67